sensor_id;sensor_type;location;lat;lon;timestamp;P1;durP1;ratioP1;P2;durP2;ratioP2
47021;SDS011;32779;52.264;6.154;2022-08-19T00:00:12;14.65;;;7.65;;
47021;SDS011;32779;52.264;6.154;2022-08-19T00:02:40;8.65;;;7.28;;
47021;SDS011;32779;52.264;6.154;2022-08-19T00:07:33;9.05;;;6.97;;
47021;SDS011;32779;52.264;6.154;2022-08-19T00:09:59;11.73;;;7.93;;
47021;SDS011;32779;52.264;6.154;2022-08-19T00:12:24;9.48;;;7.07;;
47021;SDS011;32779;52.264;6.154;2022-08-19T00:14:50;9.77;;;7.43;;
47021;SDS011;32779;52.264;6.154;2022-08-19T00:17:15;10.90;;;7.45;;
47021;SDS011;32779;52.264;6.154;2022-08-19T00:22:07;10.75;;;7.60;;
47021;SDS011;32779;52.264;6.154;2022-08-19T00:24:33;10.25;;;7.82;;
47021;SDS011;32779;52.264;6.154;2022-08-19T00:27:00;10.05;;;7.05;;
47021;SDS011;32779;52.264;6.154;2022-08-19T00:29:27;12.07;;;7.90;;
47021;SDS011;32779;52.264;6.154;2022-08-19T00:31:52;9.10;;;7.43;;
47021;SDS011;32779;52.264;6.154;2022-08-19T00:34:19;9.77;;;7.25;;
47021;SDS011;32779;52.264;6.154;2022-08-19T00:36:46;9.38;;;7.00;;
47021;SDS011;32779;52.264;6.154;2022-08-19T00:39:12;10.60;;;6.93;;
47021;SDS011;32779;52.264;6.154;2022-08-19T00:41:40;9.80;;;7.28;;
47021;SDS011;32779;52.264;6.154;2022-08-19T00:49:02;11.95;;;7.53;;
47021;SDS011;32779;52.264;6.154;2022-08-19T00:51:33;11.55;;;7.57;;
47021;SDS011;32779;52.264;6.154;2022-08-19T00:53:59;10.85;;;7.28;;
47021;SDS011;32779;52.264;6.154;2022-08-19T00:56:26;9.13;;;7.30;;
47021;SDS011;32779;52.264;6.154;2022-08-19T01:01:19;8.88;;;7.20;;
47021;SDS011;32779;52.264;6.154;2022-08-19T01:06:10;10.07;;;6.88;;
47021;SDS011;32779;52.264;6.154;2022-08-19T01:08:36;11.10;;;7.70;;
47021;SDS011;32779;52.264;6.154;2022-08-19T01:13:28;9.60;;;7.35;;
47021;SDS011;32779;52.264;6.154;2022-08-19T01:16:08;9.70;;;7.53;;
47021;SDS011;32779;52.264;6.154;2022-08-19T01:18:36;12.63;;;7.68;;
47021;SDS011;32779;52.264;6.154;2022-08-19T01:21:08;9.75;;;7.03;;
47021;SDS011;32779;52.264;6.154;2022-08-19T01:23:40;9.32;;;6.90;;
47021;SDS011;32779;52.264;6.154;2022-08-19T01:26:17;12.38;;;7.95;;
47021;SDS011;32779;52.264;6.154;2022-08-19T01:28:45;8.65;;;6.97;;
47021;SDS011;32779;52.264;6.154;2022-08-19T01:31:14;12.15;;;7.65;;
47021;SDS011;32779;52.264;6.154;2022-08-19T01:33:43;12.07;;;7.25;;
47021;SDS011;32779;52.264;6.154;2022-08-19T01:36:11;8.80;;;6.53;;
47021;SDS011;32779;52.264;6.154;2022-08-19T01:38:40;9.35;;;6.63;;
47021;SDS011;32779;52.264;6.154;2022-08-19T01:41:08;10.93;;;6.85;;
47021;SDS011;32779;52.264;6.154;2022-08-19T01:43:36;11.30;;;7.40;;
47021;SDS011;32779;52.264;6.154;2022-08-19T01:46:02;11.10;;;7.65;;
47021;SDS011;32779;52.264;6.154;2022-08-19T01:48:32;10.80;;;7.25;;
47021;SDS011;32779;52.264;6.154;2022-08-19T01:51:03;15.70;;;7.20;;
47021;SDS011;32779;52.264;6.154;2022-08-19T01:55:54;11.00;;;7.35;;
47021;SDS011;32779;52.264;6.154;2022-08-19T02:00:49;9.15;;;6.60;;
47021;SDS011;32779;52.264;6.154;2022-08-19T02:05:41;9.70;;;6.53;;
47021;SDS011;32779;52.264;6.154;2022-08-19T02:08:08;10.23;;;6.63;;
47021;SDS011;32779;52.264;6.154;2022-08-19T02:10:37;10.15;;;6.95;;
47021;SDS011;32779;52.264;6.154;2022-08-19T02:13:04;8.30;;;7.07;;
47021;SDS011;32779;52.264;6.154;2022-08-19T02:17:55;10.50;;;7.07;;
47021;SDS011;32779;52.264;6.154;2022-08-19T02:20:21;8.65;;;6.97;;
47021;SDS011;32779;52.264;6.154;2022-08-19T02:22:47;9.00;;;6.78;;
47021;SDS011;32779;52.264;6.154;2022-08-19T02:27:39;9.57;;;6.93;;
47021;SDS011;32779;52.264;6.154;2022-08-19T02:30:07;9.00;;;6.88;;
47021;SDS011;32779;52.264;6.154;2022-08-19T02:32:34;10.32;;;6.82;;
47021;SDS011;32779;52.264;6.154;2022-08-19T02:37:26;10.43;;;7.05;;
47021;SDS011;32779;52.264;6.154;2022-08-19T02:40:11;9.00;;;6.40;;
47021;SDS011;32779;52.264;6.154;2022-08-19T02:45:02;8.38;;;6.70;;
47021;SDS011;32779;52.264;6.154;2022-08-19T02:47:28;11.32;;;6.70;;
47021;SDS011;32779;52.264;6.154;2022-08-19T02:52:19;11.80;;;6.97;;
47021;SDS011;32779;52.264;6.154;2022-08-19T02:57:10;13.05;;;8.68;;
47021;SDS011;32779;52.264;6.154;2022-08-19T03:02:02;11.40;;;8.13;;
47021;SDS011;32779;52.264;6.154;2022-08-19T03:06:54;10.93;;;7.95;;
47021;SDS011;32779;52.264;6.154;2022-08-19T03:11:45;12.07;;;7.50;;
47021;SDS011;32779;52.264;6.154;2022-08-19T03:16:42;10.95;;;7.15;;
47021;SDS011;32779;52.264;6.154;2022-08-19T03:19:16;11.57;;;7.72;;
47021;SDS011;32779;52.264;6.154;2022-08-19T03:21:44;13.27;;;8.32;;
47021;SDS011;32779;52.264;6.154;2022-08-19T03:24:10;12.23;;;8.13;;
47021;SDS011;32779;52.264;6.154;2022-08-19T03:26:39;9.45;;;7.85;;
47021;SDS011;32779;52.264;6.154;2022-08-19T03:29:07;11.63;;;7.82;;
47021;SDS011;32779;52.264;6.154;2022-08-19T03:31:36;14.10;;;8.63;;
47021;SDS011;32779;52.264;6.154;2022-08-19T03:34:02;11.05;;;7.97;;
47021;SDS011;32779;52.264;6.154;2022-08-19T03:38:56;10.27;;;7.80;;
47021;SDS011;32779;52.264;6.154;2022-08-19T03:41:25;12.95;;;8.73;;
47021;SDS011;32779;52.264;6.154;2022-08-19T03:43:53;11.18;;;8.13;;
47021;SDS011;32779;52.264;6.154;2022-08-19T03:46:20;10.45;;;7.57;;
47021;SDS011;32779;52.264;6.154;2022-08-19T03:48:48;11.82;;;8.35;;
47021;SDS011;32779;52.264;6.154;2022-08-19T03:51:20;12.35;;;8.77;;
47021;SDS011;32779;52.264;6.154;2022-08-19T03:53:47;14.43;;;8.75;;
47021;SDS011;32779;52.264;6.154;2022-08-19T03:58:39;11.73;;;8.35;;
47021;SDS011;32779;52.264;6.154;2022-08-19T04:01:09;12.57;;;8.85;;
47021;SDS011;32779;52.264;6.154;2022-08-19T04:03:37;14.23;;;8.30;;
47021;SDS011;32779;52.264;6.154;2022-08-19T04:06:10;14.93;;;8.55;;
47021;SDS011;32779;52.264;6.154;2022-08-19T04:08:36;11.70;;;8.35;;
47021;SDS011;32779;52.264;6.154;2022-08-19T04:13:31;13.52;;;8.70;;
47021;SDS011;32779;52.264;6.154;2022-08-19T04:18:22;13.27;;;8.55;;
47021;SDS011;32779;52.264;6.154;2022-08-19T04:23:13;12.88;;;8.85;;
47021;SDS011;32779;52.264;6.154;2022-08-19T04:28:06;12.88;;;8.75;;
47021;SDS011;32779;52.264;6.154;2022-08-19T04:30:38;13.77;;;8.85;;
47021;SDS011;32779;52.264;6.154;2022-08-19T04:33:05;14.57;;;8.48;;
47021;SDS011;32779;52.264;6.154;2022-08-19T04:38:04;12.75;;;8.55;;
47021;SDS011;32779;52.264;6.154;2022-08-19T04:40:30;11.70;;;8.40;;
47021;SDS011;32779;52.264;6.154;2022-08-19T04:43:15;12.55;;;8.60;;
47021;SDS011;32779;52.264;6.154;2022-08-19T04:48:10;14.68;;;9.52;;
47021;SDS011;32779;52.264;6.154;2022-08-19T04:50:39;14.18;;;9.43;;
47021;SDS011;32779;52.264;6.154;2022-08-19T04:53:06;12.20;;;9.43;;
47021;SDS011;32779;52.264;6.154;2022-08-19T04:57:58;15.05;;;9.23;;
47021;SDS011;32779;52.264;6.154;2022-08-19T05:00:24;15.13;;;9.60;;
47021;SDS011;32779;52.264;6.154;2022-08-19T05:05:16;13.13;;;9.23;;
47021;SDS011;32779;52.264;6.154;2022-08-19T05:07:42;16.30;;;10.52;;
47021;SDS011;32779;52.264;6.154;2022-08-19T05:12:33;15.95;;;9.98;;
47021;SDS011;32779;52.264;6.154;2022-08-19T05:17:26;15.93;;;9.52;;
47021;SDS011;32779;52.264;6.154;2022-08-19T05:19:51;15.15;;;10.00;;
47021;SDS011;32779;52.264;6.154;2022-08-19T05:22:35;18.70;;;9.98;;
47021;SDS011;32779;52.264;6.154;2022-08-19T05:25:03;14.57;;;10.02;;
47021;SDS011;32779;52.264;6.154;2022-08-19T05:27:32;14.52;;;10.52;;
47021;SDS011;32779;52.264;6.154;2022-08-19T05:32:24;16.35;;;10.77;;
47021;SDS011;32779;52.264;6.154;2022-08-19T05:37:15;18.20;;;12.93;;
47021;SDS011;32779;52.264;6.154;2022-08-19T05:39:42;22.70;;;13.73;;
47021;SDS011;32779;52.264;6.154;2022-08-19T05:42:11;22.08;;;13.50;;
47021;SDS011;32779;52.264;6.154;2022-08-19T05:44:39;25.83;;;14.77;;
47021;SDS011;32779;52.264;6.154;2022-08-19T05:47:08;22.27;;;14.60;;
47021;SDS011;32779;52.264;6.154;2022-08-19T05:49:35;23.25;;;14.60;;
47021;SDS011;32779;52.264;6.154;2022-08-19T05:52:06;22.15;;;15.35;;
47021;SDS011;32779;52.264;6.154;2022-08-19T05:54:36;22.40;;;15.10;;
47021;SDS011;32779;52.264;6.154;2022-08-19T05:57:05;26.60;;;16.73;;
47021;SDS011;32779;52.264;6.154;2022-08-19T05:59:31;24.17;;;15.93;;
47021;SDS011;32779;52.264;6.154;2022-08-19T06:01:57;23.42;;;15.70;;
47021;SDS011;32779;52.264;6.154;2022-08-19T06:04:25;22.45;;;15.35;;
47021;SDS011;32779;52.264;6.154;2022-08-19T06:09:17;22.20;;;14.48;;
47021;SDS011;32779;52.264;6.154;2022-08-19T06:14:19;21.20;;;14.35;;
47021;SDS011;32779;52.264;6.154;2022-08-19T06:16:47;20.40;;;13.70;;
47021;SDS011;32779;52.264;6.154;2022-08-19T06:19:14;22.45;;;15.02;;
47021;SDS011;32779;52.264;6.154;2022-08-19T06:21:44;21.17;;;15.68;;
47021;SDS011;32779;52.264;6.154;2022-08-19T06:24:12;19.52;;;13.80;;
47021;SDS011;32779;52.264;6.154;2022-08-19T06:26:41;23.23;;;15.30;;
47021;SDS011;32779;52.264;6.154;2022-08-19T06:29:09;22.42;;;15.43;;
47021;SDS011;32779;52.264;6.154;2022-08-19T06:31:37;21.05;;;14.15;;
47021;SDS011;32779;52.264;6.154;2022-08-19T06:34:10;25.25;;;15.70;;
47021;SDS011;32779;52.264;6.154;2022-08-19T06:36:41;20.15;;;14.23;;
47021;SDS011;32779;52.264;6.154;2022-08-19T06:39:12;20.05;;;14.05;;
47021;SDS011;32779;52.264;6.154;2022-08-19T06:41:44;18.35;;;13.65;;
47021;SDS011;32779;52.264;6.154;2022-08-19T06:44:12;20.80;;;14.18;;
47021;SDS011;32779;52.264;6.154;2022-08-19T06:46:38;18.85;;;13.75;;
47021;SDS011;32779;52.264;6.154;2022-08-19T06:49:05;17.38;;;13.00;;
47021;SDS011;32779;52.264;6.154;2022-08-19T06:51:34;19.88;;;13.63;;
47021;SDS011;32779;52.264;6.154;2022-08-19T06:54:00;17.73;;;12.75;;
47021;SDS011;32779;52.264;6.154;2022-08-19T06:56:28;16.17;;;12.50;;
47021;SDS011;32779;52.264;6.154;2022-08-19T06:59:05;20.25;;;13.60;;
47021;SDS011;32779;52.264;6.154;2022-08-19T07:01:39;20.63;;;13.82;;
47021;SDS011;32779;52.264;6.154;2022-08-19T07:04:12;18.65;;;13.02;;
47021;SDS011;32779;52.264;6.154;2022-08-19T07:06:40;15.38;;;12.23;;
47021;SDS011;32779;52.264;6.154;2022-08-19T07:09:07;20.38;;;14.05;;
47021;SDS011;32779;52.264;6.154;2022-08-19T07:11:34;21.45;;;14.15;;
47021;SDS011;32779;52.264;6.154;2022-08-19T07:14:00;21.40;;;13.15;;
47021;SDS011;32779;52.264;6.154;2022-08-19T07:16:25;20.17;;;14.05;;
47021;SDS011;32779;52.264;6.154;2022-08-19T07:18:53;23.38;;;13.80;;
47021;SDS011;32779;52.264;6.154;2022-08-19T07:21:23;19.40;;;12.05;;
47021;SDS011;32779;52.264;6.154;2022-08-19T07:23:54;17.92;;;12.02;;
47021;SDS011;32779;52.264;6.154;2022-08-19T07:28:48;16.95;;;11.40;;
47021;SDS011;32779;52.264;6.154;2022-08-19T07:31:16;15.90;;;11.48;;
47021;SDS011;32779;52.264;6.154;2022-08-19T07:33:43;17.20;;;12.38;;
47021;SDS011;32779;52.264;6.154;2022-08-19T07:36:11;18.15;;;11.75;;
47021;SDS011;32779;52.264;6.154;2022-08-19T07:38:39;15.27;;;11.60;;
47021;SDS011;32779;52.264;6.154;2022-08-19T07:41:06;17.20;;;11.82;;
47021;SDS011;32779;52.264;6.154;2022-08-19T07:43:35;17.65;;;12.50;;
47021;SDS011;32779;52.264;6.154;2022-08-19T07:46:00;18.40;;;12.35;;
47021;SDS011;32779;52.264;6.154;2022-08-19T07:48:26;17.90;;;13.65;;
47021;SDS011;32779;52.264;6.154;2022-08-19T07:50:54;17.73;;;12.52;;
47021;SDS011;32779;52.264;6.154;2022-08-19T07:53:22;17.73;;;12.48;;
47021;SDS011;32779;52.264;6.154;2022-08-19T07:55:49;21.38;;;12.23;;
47021;SDS011;32779;52.264;6.154;2022-08-19T07:58:16;21.52;;;12.70;;
47021;SDS011;32779;52.264;6.154;2022-08-19T08:00:44;20.70;;;11.93;;
47021;SDS011;32779;52.264;6.154;2022-08-19T08:03:12;20.80;;;12.73;;
47021;SDS011;32779;52.264;6.154;2022-08-19T08:05:39;19.88;;;12.65;;
47021;SDS011;32779;52.264;6.154;2022-08-19T08:08:23;16.58;;;12.02;;
47021;SDS011;32779;52.264;6.154;2022-08-19T08:11:07;15.00;;;11.60;;
47021;SDS011;32779;52.264;6.154;2022-08-19T08:13:33;17.00;;;12.52;;
47021;SDS011;32779;52.264;6.154;2022-08-19T08:16:00;16.20;;;11.75;;
47021;SDS011;32779;52.264;6.154;2022-08-19T08:18:26;15.25;;;11.27;;
47021;SDS011;32779;52.264;6.154;2022-08-19T08:20:52;20.65;;;11.65;;
47021;SDS011;32779;52.264;6.154;2022-08-19T08:23:18;20.35;;;12.02;;
47021;SDS011;32779;52.264;6.154;2022-08-19T08:25:50;19.00;;;11.52;;
47021;SDS011;32779;52.264;6.154;2022-08-19T08:28:18;16.67;;;12.25;;
47021;SDS011;32779;52.264;6.154;2022-08-19T08:30:44;20.27;;;11.38;;
47021;SDS011;32779;52.264;6.154;2022-08-19T08:33:12;17.60;;;11.43;;
47021;SDS011;32779;52.264;6.154;2022-08-19T08:35:39;17.30;;;10.55;;
47021;SDS011;32779;52.264;6.154;2022-08-19T08:38:06;16.77;;;11.95;;
47021;SDS011;32779;52.264;6.154;2022-08-19T08:43:07;15.63;;;10.02;;
47021;SDS011;32779;52.264;6.154;2022-08-19T08:45:50;17.77;;;10.45;;
47021;SDS011;32779;52.264;6.154;2022-08-19T08:48:28;17.15;;;10.68;;
47021;SDS011;32779;52.264;6.154;2022-08-19T08:51:03;15.80;;;11.82;;
47021;SDS011;32779;52.264;6.154;2022-08-19T08:53:32;16.05;;;11.48;;
47021;SDS011;32779;52.264;6.154;2022-08-19T08:56:00;17.20;;;10.90;;
47021;SDS011;32779;52.264;6.154;2022-08-19T08:58:31;20.60;;;12.45;;
47021;SDS011;32779;52.264;6.154;2022-08-19T09:01:08;20.15;;;13.05;;
47021;SDS011;32779;52.264;6.154;2022-08-19T09:03:36;20.48;;;12.02;;
47021;SDS011;32779;52.264;6.154;2022-08-19T09:06:07;20.35;;;12.50;;
47021;SDS011;32779;52.264;6.154;2022-08-19T09:11:10;20.77;;;14.45;;
47021;SDS011;32779;52.264;6.154;2022-08-19T09:13:56;23.88;;;12.80;;
47021;SDS011;32779;52.264;6.154;2022-08-19T09:16:39;18.17;;;12.50;;
47021;SDS011;32779;52.264;6.154;2022-08-19T09:19:05;14.30;;;11.13;;
47021;SDS011;32779;52.264;6.154;2022-08-19T09:21:32;17.42;;;11.77;;
47021;SDS011;32779;52.264;6.154;2022-08-19T09:23:59;17.42;;;12.98;;
47021;SDS011;32779;52.264;6.154;2022-08-19T09:26:29;18.65;;;13.05;;
47021;SDS011;32779;52.264;6.154;2022-08-19T09:28:56;19.85;;;11.57;;
47021;SDS011;32779;52.264;6.154;2022-08-19T09:31:24;19.05;;;11.57;;
47021;SDS011;32779;52.264;6.154;2022-08-19T09:33:52;22.92;;;12.07;;
47021;SDS011;32779;52.264;6.154;2022-08-19T09:36:22;19.98;;;11.70;;
47021;SDS011;32779;52.264;6.154;2022-08-19T09:38:49;15.90;;;10.82;;
47021;SDS011;32779;52.264;6.154;2022-08-19T09:41:17;14.13;;;9.85;;
47021;SDS011;32779;52.264;6.154;2022-08-19T09:43:45;16.08;;;10.73;;
47021;SDS011;32779;52.264;6.154;2022-08-19T09:46:12;16.65;;;10.30;;
47021;SDS011;32779;52.264;6.154;2022-08-19T09:48:41;16.15;;;11.05;;
47021;SDS011;32779;52.264;6.154;2022-08-19T09:51:08;22.23;;;13.30;;
47021;SDS011;32779;52.264;6.154;2022-08-19T09:53:40;21.15;;;12.38;;
47021;SDS011;32779;52.264;6.154;2022-08-19T09:56:06;15.15;;;10.13;;
47021;SDS011;32779;52.264;6.154;2022-08-19T09:58:32;15.23;;;9.98;;
47021;SDS011;32779;52.264;6.154;2022-08-19T10:01:00;18.67;;;11.10;;
47021;SDS011;32779;52.264;6.154;2022-08-19T10:03:27;18.00;;;11.90;;
47021;SDS011;32779;52.264;6.154;2022-08-19T10:05:54;16.85;;;11.77;;
47021;SDS011;32779;52.264;6.154;2022-08-19T10:08:21;19.00;;;12.82;;
47021;SDS011;32779;52.264;6.154;2022-08-19T10:10:53;18.80;;;12.57;;
47021;SDS011;32779;52.264;6.154;2022-08-19T10:13:20;18.50;;;11.13;;
47021;SDS011;32779;52.264;6.154;2022-08-19T10:15:49;20.90;;;13.73;;
47021;SDS011;32779;52.264;6.154;2022-08-19T10:18:17;25.60;;;13.52;;
47021;SDS011;32779;52.264;6.154;2022-08-19T10:20:45;23.38;;;12.95;;
47021;SDS011;32779;52.264;6.154;2022-08-19T10:23:12;20.73;;;12.90;;
47021;SDS011;32779;52.264;6.154;2022-08-19T10:25:38;20.25;;;11.70;;
47021;SDS011;32779;52.264;6.154;2022-08-19T10:28:04;21.73;;;14.05;;
47021;SDS011;32779;52.264;6.154;2022-08-19T10:30:32;21.88;;;13.88;;
47021;SDS011;32779;52.264;6.154;2022-08-19T10:32:58;18.13;;;13.20;;
47021;SDS011;32779;52.264;6.154;2022-08-19T10:35:24;16.73;;;11.35;;
47021;SDS011;32779;52.264;6.154;2022-08-19T10:37:52;16.85;;;11.27;;
47021;SDS011;32779;52.264;6.154;2022-08-19T10:40:18;20.30;;;13.43;;
47021;SDS011;32779;52.264;6.154;2022-08-19T10:42:43;17.17;;;12.50;;
47021;SDS011;32779;52.264;6.154;2022-08-19T10:45:09;18.00;;;11.90;;
47021;SDS011;32779;52.264;6.154;2022-08-19T10:47:35;17.70;;;10.75;;
47021;SDS011;32779;52.264;6.154;2022-08-19T10:50:01;17.35;;;11.90;;
47021;SDS011;32779;52.264;6.154;2022-08-19T10:52:47;20.42;;;12.48;;
47021;SDS011;32779;52.264;6.154;2022-08-19T10:55:14;20.85;;;13.63;;
47021;SDS011;32779;52.264;6.154;2022-08-19T10:57:58;20.92;;;12.70;;
47021;SDS011;32779;52.264;6.154;2022-08-19T11:00:24;19.50;;;12.68;;
47021;SDS011;32779;52.264;6.154;2022-08-19T11:02:50;19.52;;;12.80;;
47021;SDS011;32779;52.264;6.154;2022-08-19T11:05:16;21.05;;;11.27;;
47021;SDS011;32779;52.264;6.154;2022-08-19T11:07:43;21.92;;;13.18;;
47021;SDS011;32779;52.264;6.154;2022-08-19T11:10:09;23.33;;;13.75;;
47021;SDS011;32779;52.264;6.154;2022-08-19T11:12:37;20.05;;;12.48;;
47021;SDS011;32779;52.264;6.154;2022-08-19T11:15:05;17.15;;;11.15;;
47021;SDS011;32779;52.264;6.154;2022-08-19T11:17:35;16.88;;;11.38;;
47021;SDS011;32779;52.264;6.154;2022-08-19T11:20:02;15.45;;;9.88;;
47021;SDS011;32779;52.264;6.154;2022-08-19T11:22:30;15.93;;;9.93;;
47021;SDS011;32779;52.264;6.154;2022-08-19T11:24:55;9.98;;;7.78;;
47021;SDS011;32779;52.264;6.154;2022-08-19T11:27:21;18.17;;;9.00;;
47021;SDS011;32779;52.264;6.154;2022-08-19T11:29:46;15.10;;;8.85;;
47021;SDS011;32779;52.264;6.154;2022-08-19T11:32:12;12.00;;;7.43;;
47021;SDS011;32779;52.264;6.154;2022-08-19T11:34:38;8.85;;;6.18;;
47021;SDS011;32779;52.264;6.154;2022-08-19T11:37:04;7.68;;;4.68;;
47021;SDS011;32779;52.264;6.154;2022-08-19T11:39:31;8.00;;;5.38;;
47021;SDS011;32779;52.264;6.154;2022-08-19T11:41:59;9.63;;;6.38;;
47021;SDS011;32779;52.264;6.154;2022-08-19T11:44:26;14.23;;;9.27;;
47021;SDS011;32779;52.264;6.154;2022-08-19T11:46:52;11.75;;;8.10;;
47021;SDS011;32779;52.264;6.154;2022-08-19T11:49:19;16.58;;;8.45;;
47021;SDS011;32779;52.264;6.154;2022-08-19T11:51:46;17.30;;;7.45;;
47021;SDS011;32779;52.264;6.154;2022-08-19T11:54:14;12.75;;;6.95;;
47021;SDS011;32779;52.264;6.154;2022-08-19T11:56:41;11.05;;;7.20;;
47021;SDS011;32779;52.264;6.154;2022-08-19T11:59:07;10.90;;;6.35;;
47021;SDS011;32779;52.264;6.154;2022-08-19T12:01:35;13.68;;;8.15;;
47021;SDS011;32779;52.264;6.154;2022-08-19T12:04:01;18.90;;;9.07;;
47021;SDS011;32779;52.264;6.154;2022-08-19T12:06:30;12.55;;;8.80;;
47021;SDS011;32779;52.264;6.154;2022-08-19T12:08:58;15.38;;;8.60;;
47021;SDS011;32779;52.264;6.154;2022-08-19T12:11:25;14.07;;;8.70;;
47021;SDS011;32779;52.264;6.154;2022-08-19T12:13:52;11.45;;;6.93;;
47021;SDS011;32779;52.264;6.154;2022-08-19T12:16:19;12.38;;;8.00;;
47021;SDS011;32779;52.264;6.154;2022-08-19T12:18:48;8.48;;;6.15;;
47021;SDS011;32779;52.264;6.154;2022-08-19T12:21:17;9.93;;;6.20;;
47021;SDS011;32779;52.264;6.154;2022-08-19T12:23:46;9.63;;;5.72;;
47021;SDS011;32779;52.264;6.154;2022-08-19T12:26:13;9.90;;;6.07;;
47021;SDS011;32779;52.264;6.154;2022-08-19T12:28:39;9.10;;;4.80;;
47021;SDS011;32779;52.264;6.154;2022-08-19T12:31:04;9.70;;;4.72;;
47021;SDS011;32779;52.264;6.154;2022-08-19T12:33:30;7.50;;;4.95;;
47021;SDS011;32779;52.264;6.154;2022-08-19T12:36:00;8.35;;;5.47;;
47021;SDS011;32779;52.264;6.154;2022-08-19T12:38:28;9.35;;;4.97;;
47021;SDS011;32779;52.264;6.154;2022-08-19T12:40:53;9.68;;;6.10;;
47021;SDS011;32779;52.264;6.154;2022-08-19T12:43:19;10.40;;;5.65;;
47021;SDS011;32779;52.264;6.154;2022-08-19T12:45:45;7.18;;;5.53;;
47021;SDS011;32779;52.264;6.154;2022-08-19T12:48:11;7.75;;;5.43;;
47021;SDS011;32779;52.264;6.154;2022-08-19T12:50:41;9.80;;;5.53;;
47021;SDS011;32779;52.264;6.154;2022-08-19T12:53:09;11.00;;;7.18;;
47021;SDS011;32779;52.264;6.154;2022-08-19T12:55:35;9.05;;;5.80;;
47021;SDS011;32779;52.264;6.154;2022-08-19T12:58:00;11.68;;;7.00;;
47021;SDS011;32779;52.264;6.154;2022-08-19T13:00:26;9.70;;;6.57;;
47021;SDS011;32779;52.264;6.154;2022-08-19T13:02:52;7.10;;;5.30;;
47021;SDS011;32779;52.264;6.154;2022-08-19T13:05:21;7.68;;;5.70;;
47021;SDS011;32779;52.264;6.154;2022-08-19T13:07:49;12.80;;;5.88;;
47021;SDS011;32779;52.264;6.154;2022-08-19T13:10:18;12.63;;;7.13;;
47021;SDS011;32779;52.264;6.154;2022-08-19T13:12:45;9.43;;;6.45;;
47021;SDS011;32779;52.264;6.154;2022-08-19T13:15:12;9.60;;;6.13;;
47021;SDS011;32779;52.264;6.154;2022-08-19T13:17:39;8.88;;;5.45;;
47021;SDS011;32779;52.264;6.154;2022-08-19T13:20:09;11.57;;;5.70;;
47021;SDS011;32779;52.264;6.154;2022-08-19T13:22:36;8.95;;;5.38;;
47021;SDS011;32779;52.264;6.154;2022-08-19T13:25:02;10.68;;;5.43;;
47021;SDS011;32779;52.264;6.154;2022-08-19T13:27:31;8.73;;;5.82;;
47021;SDS011;32779;52.264;6.154;2022-08-19T13:29:56;8.23;;;5.10;;
47021;SDS011;32779;52.264;6.154;2022-08-19T13:32:40;10.48;;;4.70;;
47021;SDS011;32779;52.264;6.154;2022-08-19T13:35:24;5.65;;;4.40;;
47021;SDS011;32779;52.264;6.154;2022-08-19T13:37:50;8.50;;;4.55;;
47021;SDS011;32779;52.264;6.154;2022-08-19T13:40:17;5.97;;;4.15;;
47021;SDS011;32779;52.264;6.154;2022-08-19T13:42:49;10.98;;;4.90;;
47021;SDS011;32779;52.264;6.154;2022-08-19T13:45:17;10.82;;;5.25;;
47021;SDS011;32779;52.264;6.154;2022-08-19T13:47:48;5.68;;;4.22;;
47021;SDS011;32779;52.264;6.154;2022-08-19T13:50:19;10.07;;;4.60;;
47021;SDS011;32779;52.264;6.154;2022-08-19T13:52:47;6.90;;;4.53;;
47021;SDS011;32779;52.264;6.154;2022-08-19T13:55:13;10.32;;;5.35;;
47021;SDS011;32779;52.264;6.154;2022-08-19T13:57:40;6.47;;;4.93;;
47021;SDS011;32779;52.264;6.154;2022-08-19T14:00:12;8.30;;;5.22;;
47021;SDS011;32779;52.264;6.154;2022-08-19T14:02:40;8.20;;;4.65;;
47021;SDS011;32779;52.264;6.154;2022-08-19T14:05:07;7.38;;;5.57;;
47021;SDS011;32779;52.264;6.154;2022-08-19T14:07:34;13.13;;;5.15;;
47021;SDS011;32779;52.264;6.154;2022-08-19T14:10:01;7.00;;;4.82;;
47021;SDS011;32779;52.264;6.154;2022-08-19T14:12:28;7.03;;;5.07;;
47021;SDS011;32779;52.264;6.154;2022-08-19T14:14:53;8.10;;;6.07;;
47021;SDS011;32779;52.264;6.154;2022-08-19T14:17:19;16.90;;;10.35;;
47021;SDS011;32779;52.264;6.154;2022-08-19T14:19:45;15.20;;;10.15;;
47021;SDS011;32779;52.264;6.154;2022-08-19T14:22:10;15.48;;;10.55;;
47021;SDS011;32779;52.264;6.154;2022-08-19T14:24:39;17.15;;;12.05;;
47021;SDS011;32779;52.264;6.154;2022-08-19T14:27:06;17.67;;;11.75;;
47021;SDS011;32779;52.264;6.154;2022-08-19T14:29:32;20.52;;;12.43;;
47021;SDS011;32779;52.264;6.154;2022-08-19T14:31:59;18.23;;;12.38;;
47021;SDS011;32779;52.264;6.154;2022-08-19T14:34:25;18.73;;;13.07;;
47021;SDS011;32779;52.264;6.154;2022-08-19T14:36:51;21.08;;;13.27;;
47021;SDS011;32779;52.264;6.154;2022-08-19T14:39:17;17.77;;;12.57;;
47021;SDS011;32779;52.264;6.154;2022-08-19T14:41:43;18.30;;;10.75;;
47021;SDS011;32779;52.264;6.154;2022-08-19T14:44:09;16.45;;;10.68;;
47021;SDS011;32779;52.264;6.154;2022-08-19T14:46:37;16.85;;;10.93;;
47021;SDS011;32779;52.264;6.154;2022-08-19T14:49:03;13.45;;;10.38;;
47021;SDS011;32779;52.264;6.154;2022-08-19T14:51:29;12.77;;;9.57;;
47021;SDS011;32779;52.264;6.154;2022-08-19T14:53:54;10.82;;;8.02;;
47021;SDS011;32779;52.264;6.154;2022-08-19T14:56:22;11.40;;;8.35;;
47021;SDS011;32779;52.264;6.154;2022-08-19T14:58:51;13.20;;;8.45;;
47021;SDS011;32779;52.264;6.154;2022-08-19T15:01:17;11.18;;;7.93;;
47021;SDS011;32779;52.264;6.154;2022-08-19T15:03:46;14.07;;;8.48;;
47021;SDS011;32779;52.264;6.154;2022-08-19T15:06:13;13.07;;;8.80;;
47021;SDS011;32779;52.264;6.154;2022-08-19T15:08:39;12.65;;;10.13;;
47021;SDS011;32779;52.264;6.154;2022-08-19T15:11:10;16.48;;;10.98;;
47021;SDS011;32779;52.264;6.154;2022-08-19T15:13:39;15.10;;;12.07;;
47021;SDS011;32779;52.264;6.154;2022-08-19T15:16:05;18.67;;;10.60;;
47021;SDS011;32779;52.264;6.154;2022-08-19T15:18:31;18.05;;;11.93;;
47021;SDS011;32779;52.264;6.154;2022-08-19T15:20:57;17.40;;;11.50;;
47021;SDS011;32779;52.264;6.154;2022-08-19T15:23:24;16.92;;;11.48;;
47021;SDS011;32779;52.264;6.154;2022-08-19T15:25:50;12.43;;;9.35;;
47021;SDS011;32779;52.264;6.154;2022-08-19T15:28:20;12.00;;;9.40;;
47021;SDS011;32779;52.264;6.154;2022-08-19T15:30:46;13.15;;;8.50;;
47021;SDS011;32779;52.264;6.154;2022-08-19T15:33:12;14.45;;;9.50;;
47021;SDS011;32779;52.264;6.154;2022-08-19T15:35:39;17.88;;;11.95;;
47021;SDS011;32779;52.264;6.154;2022-08-19T15:38:07;12.70;;;10.82;;
47021;SDS011;32779;52.264;6.154;2022-08-19T15:40:33;13.63;;;10.20;;
47021;SDS011;32779;52.264;6.154;2022-08-19T15:42:59;19.40;;;11.63;;
47021;SDS011;32779;52.264;6.154;2022-08-19T15:45:25;15.63;;;10.10;;
47021;SDS011;32779;52.264;6.154;2022-08-19T15:47:57;12.88;;;9.20;;
47021;SDS011;32779;52.264;6.154;2022-08-19T15:50:23;15.30;;;11.38;;
47021;SDS011;32779;52.264;6.154;2022-08-19T15:52:56;11.82;;;9.25;;
47021;SDS011;32779;52.264;6.154;2022-08-19T15:55:29;14.35;;;10.77;;
47021;SDS011;32779;52.264;6.154;2022-08-19T15:58:00;14.38;;;9.77;;
47021;SDS011;32779;52.264;6.154;2022-08-19T16:00:49;13.10;;;9.27;;
47021;SDS011;32779;52.264;6.154;2022-08-19T16:03:33;13.07;;;7.97;;
47021;SDS011;32779;52.264;6.154;2022-08-19T16:06:17;11.73;;;7.85;;
47021;SDS011;32779;52.264;6.154;2022-08-19T16:08:55;11.05;;;7.13;;
47021;SDS011;32779;52.264;6.154;2022-08-19T16:11:23;6.78;;;4.72;;